sensor_id;sensor_type;location;lat;lon;timestamp;P1;durP1;ratioP1;P2;durP2;ratioP2
32780;SDS011;19136;47.032;15.502;2023-11-21T00:01:44;38.85;;;17.95;;
32780;SDS011;19136;47.032;15.502;2023-11-21T00:04:09;35.95;;;17.15;;
32780;SDS011;19136;47.032;15.502;2023-11-21T00:06:35;37.70;;;17.23;;
32780;SDS011;19136;47.032;15.502;2023-11-21T00:09:00;30.92;;;16.50;;
32780;SDS011;19136;47.032;15.502;2023-11-21T00:11:26;35.35;;;16.13;;
32780;SDS011;19136;47.032;15.502;2023-11-21T00:13:51;37.08;;;15.88;;
32780;SDS011;19136;47.032;15.502;2023-11-21T00:16:17;33.35;;;16.95;;
32780;SDS011;19136;47.032;15.502;2023-11-21T00:18:42;29.23;;;16.25;;
32780;SDS011;19136;47.032;15.502;2023-11-21T00:21:08;36.80;;;16.80;;
32780;SDS011;19136;47.032;15.502;2023-11-21T00:23:34;33.30;;;15.15;;
32780;SDS011;19136;47.032;15.502;2023-11-21T00:25:59;37.38;;;15.38;;
32780;SDS011;19136;47.032;15.502;2023-11-21T00:28:25;31.23;;;15.57;;
32780;SDS011;19136;47.032;15.502;2023-11-21T00:30:51;29.98;;;14.40;;
32780;SDS011;19136;47.032;15.502;2023-11-21T00:33:16;34.42;;;14.68;;
32780;SDS011;19136;47.032;15.502;2023-11-21T00:35:42;31.83;;;15.00;;
32780;SDS011;19136;47.032;15.502;2023-11-21T00:38:07;34.72;;;16.08;;
32780;SDS011;19136;47.032;15.502;2023-11-21T00:40:33;34.13;;;14.25;;
32780;SDS011;19136;47.032;15.502;2023-11-21T00:43:00;30.55;;;15.13;;
32780;SDS011;19136;47.032;15.502;2023-11-21T00:45:26;27.23;;;13.00;;
32780;SDS011;19136;47.032;15.502;2023-11-21T00:47:51;34.88;;;14.80;;
32780;SDS011;19136;47.032;15.502;2023-11-21T00:50:17;33.15;;;15.02;;
32780;SDS011;19136;47.032;15.502;2023-11-21T00:52:42;35.65;;;15.30;;
32780;SDS011;19136;47.032;15.502;2023-11-21T00:55:07;31.75;;;14.20;;
32780;SDS011;19136;47.032;15.502;2023-11-21T00:57:34;31.13;;;16.02;;
32780;SDS011;19136;47.032;15.502;2023-11-21T00:59:59;29.65;;;15.02;;
32780;SDS011;19136;47.032;15.502;2023-11-21T01:02:25;32.00;;;14.15;;
32780;SDS011;19136;47.032;15.502;2023-11-21T01:04:52;30.15;;;15.50;;
32780;SDS011;19136;47.032;15.502;2023-11-21T01:07:17;26.98;;;13.82;;
32780;SDS011;19136;47.032;15.502;2023-11-21T01:09:45;33.97;;;13.45;;
32780;SDS011;19136;47.032;15.502;2023-11-21T01:12:11;35.45;;;14.45;;
32780;SDS011;19136;47.032;15.502;2023-11-21T01:14:36;29.80;;;13.93;;
32780;SDS011;19136;47.032;15.502;2023-11-21T01:17:02;29.23;;;14.90;;
32780;SDS011;19136;47.032;15.502;2023-11-21T01:19:29;27.02;;;13.52;;
32780;SDS011;19136;47.032;15.502;2023-11-21T01:21:56;30.13;;;13.90;;
32780;SDS011;19136;47.032;15.502;2023-11-21T01:24:23;30.60;;;13.73;;
32780;SDS011;19136;47.032;15.502;2023-11-21T01:26:48;39.15;;;15.75;;
32780;SDS011;19136;47.032;15.502;2023-11-21T01:29:14;26.90;;;14.07;;
32780;SDS011;19136;47.032;15.502;2023-11-21T01:31:40;31.77;;;14.20;;
32780;SDS011;19136;47.032;15.502;2023-11-21T01:34:06;36.20;;;14.85;;
32780;SDS011;19136;47.032;15.502;2023-11-21T01:36:32;29.42;;;13.05;;
32780;SDS011;19136;47.032;15.502;2023-11-21T01:38:58;29.17;;;11.88;;
32780;SDS011;19136;47.032;15.502;2023-11-21T01:41:25;26.55;;;12.90;;
32780;SDS011;19136;47.032;15.502;2023-11-21T01:43:52;26.65;;;11.60;;
32780;SDS011;19136;47.032;15.502;2023-11-21T01:46:19;26.95;;;11.70;;
32780;SDS011;19136;47.032;15.502;2023-11-21T01:48:45;27.15;;;11.57;;
32780;SDS011;19136;47.032;15.502;2023-11-21T01:51:11;21.80;;;11.68;;
32780;SDS011;19136;47.032;15.502;2023-11-21T01:53:36;23.15;;;11.27;;
32780;SDS011;19136;47.032;15.502;2023-11-21T01:56:02;25.90;;;12.88;;
32780;SDS011;19136;47.032;15.502;2023-11-21T01:58:27;22.98;;;10.68;;
32780;SDS011;19136;47.032;15.502;2023-11-21T02:00:53;23.27;;;11.93;;
32780;SDS011;19136;47.032;15.502;2023-11-21T02:03:20;25.13;;;11.85;;
32780;SDS011;19136;47.032;15.502;2023-11-21T02:05:46;35.03;;;13.07;;
32780;SDS011;19136;47.032;15.502;2023-11-21T02:08:12;24.25;;;11.27;;
32780;SDS011;19136;47.032;15.502;2023-11-21T02:10:37;23.80;;;11.15;;
32780;SDS011;19136;47.032;15.502;2023-11-21T02:13:03;23.67;;;11.98;;
32780;SDS011;19136;47.032;15.502;2023-11-21T02:15:28;24.83;;;11.23;;
32780;SDS011;19136;47.032;15.502;2023-11-21T02:17:54;23.45;;;11.88;;
32780;SDS011;19136;47.032;15.502;2023-11-21T02:20:20;20.85;;;10.70;;
32780;SDS011;19136;47.032;15.502;2023-11-21T02:22:51;25.77;;;12.05;;
32780;SDS011;19136;47.032;15.502;2023-11-21T02:25:29;24.15;;;11.73;;
32780;SDS011;19136;47.032;15.502;2023-11-21T02:27:56;22.27;;;11.23;;
32780;SDS011;19136;47.032;15.502;2023-11-21T02:30:22;24.10;;;11.27;;
32780;SDS011;19136;47.032;15.502;2023-11-21T02:32:48;25.30;;;12.52;;
32780;SDS011;19136;47.032;15.502;2023-11-21T02:35:14;23.63;;;10.68;;
32780;SDS011;19136;47.032;15.502;2023-11-21T02:37:41;21.13;;;10.73;;
32780;SDS011;19136;47.032;15.502;2023-11-21T02:40:08;25.60;;;12.05;;
32780;SDS011;19136;47.032;15.502;2023-11-21T02:42:35;24.10;;;11.07;;
32780;SDS011;19136;47.032;15.502;2023-11-21T02:45:00;26.50;;;12.60;;
32780;SDS011;19136;47.032;15.502;2023-11-21T02:47:26;22.85;;;11.13;;
32780;SDS011;19136;47.032;15.502;2023-11-21T02:49:51;24.95;;;11.00;;
32780;SDS011;19136;47.032;15.502;2023-11-21T02:52:17;22.98;;;10.52;;
32780;SDS011;19136;47.032;15.502;2023-11-21T02:54:43;22.95;;;10.80;;
32780;SDS011;19136;47.032;15.502;2023-11-21T02:57:09;18.73;;;10.27;;
32780;SDS011;19136;47.032;15.502;2023-11-21T02:59:35;25.73;;;10.85;;
32780;SDS011;19136;47.032;15.502;2023-11-21T03:02:00;21.42;;;10.25;;
32780;SDS011;19136;47.032;15.502;2023-11-21T03:04:26;24.88;;;9.75;;
32780;SDS011;19136;47.032;15.502;2023-11-21T03:06:52;21.75;;;9.60;;
32780;SDS011;19136;47.032;15.502;2023-11-21T03:09:17;22.25;;;9.38;;
32780;SDS011;19136;47.032;15.502;2023-11-21T03:11:43;19.98;;;9.77;;
32780;SDS011;19136;47.032;15.502;2023-11-21T03:14:08;21.30;;;9.52;;
32780;SDS011;19136;47.032;15.502;2023-11-21T03:16:34;19.63;;;9.60;;
32780;SDS011;19136;47.032;15.502;2023-11-21T03:18:59;24.80;;;9.75;;
32780;SDS011;19136;47.032;15.502;2023-11-21T03:21:25;19.38;;;8.60;;
32780;SDS011;19136;47.032;15.502;2023-11-21T03:23:51;19.55;;;9.07;;
32780;SDS011;19136;47.032;15.502;2023-11-21T03:26:17;17.92;;;9.82;;
32780;SDS011;19136;47.032;15.502;2023-11-21T03:28:43;22.05;;;9.68;;
32780;SDS011;19136;47.032;15.502;2023-11-21T03:31:08;19.92;;;9.15;;
32780;SDS011;19136;47.032;15.502;2023-11-21T03:33:34;20.33;;;9.55;;
32780;SDS011;19136;47.032;15.502;2023-11-21T03:36:00;19.92;;;9.38;;
32780;SDS011;19136;47.032;15.502;2023-11-21T03:38:26;22.10;;;9.52;;
32780;SDS011;19136;47.032;15.502;2023-11-21T03:40:51;22.10;;;9.18;;
32780;SDS011;19136;47.032;15.502;2023-11-21T03:43:16;16.13;;;9.15;;
32780;SDS011;19136;47.032;15.502;2023-11-21T03:45:42;21.85;;;8.93;;
32780;SDS011;19136;47.032;15.502;2023-11-21T03:48:09;22.25;;;10.00;;
32780;SDS011;19136;47.032;15.502;2023-11-21T03:50:37;20.45;;;9.55;;
32780;SDS011;19136;47.032;15.502;2023-11-21T03:53:02;21.50;;;10.25;;
32780;SDS011;19136;47.032;15.502;2023-11-21T03:55:29;14.13;;;8.48;;
32780;SDS011;19136;47.032;15.502;2023-11-21T03:57:56;15.18;;;8.50;;
32780;SDS011;19136;47.032;15.502;2023-11-21T04:00:22;20.15;;;9.07;;
32780;SDS011;19136;47.032;15.502;2023-11-21T04:02:47;17.60;;;9.10;;
32780;SDS011;19136;47.032;15.502;2023-11-21T04:05:13;21.85;;;9.98;;
32780;SDS011;19136;47.032;15.502;2023-11-21T04:07:38;23.42;;;9.70;;
32780;SDS011;19136;47.032;15.502;2023-11-21T04:10:04;22.05;;;9.32;;
32780;SDS011;19136;47.032;15.502;2023-11-21T04:12:32;21.02;;;9.30;;
32780;SDS011;19136;47.032;15.502;2023-11-21T04:14:58;20.45;;;10.13;;
32780;SDS011;19136;47.032;15.502;2023-11-21T04:17:23;22.65;;;8.77;;
32780;SDS011;19136;47.032;15.502;2023-11-21T04:19:49;15.75;;;8.02;;
32780;SDS011;19136;47.032;15.502;2023-11-21T04:22:14;17.95;;;8.40;;
32780;SDS011;19136;47.032;15.502;2023-11-21T04:24:40;18.90;;;8.82;;
32780;SDS011;19136;47.032;15.502;2023-11-21T04:27:05;19.35;;;8.93;;
32780;SDS011;19136;47.032;15.502;2023-11-21T04:29:31;21.00;;;8.65;;
32780;SDS011;19136;47.032;15.502;2023-11-21T04:31:56;16.83;;;9.13;;
32780;SDS011;19136;47.032;15.502;2023-11-21T04:34:21;19.98;;;8.85;;
32780;SDS011;19136;47.032;15.502;2023-11-21T04:36:47;20.75;;;8.60;;
32780;SDS011;19136;47.032;15.502;2023-11-21T04:39:12;22.65;;;8.63;;
32780;SDS011;19136;47.032;15.502;2023-11-21T04:41:38;20.52;;;9.77;;
32780;SDS011;19136;47.032;15.502;2023-11-21T04:44:07;17.83;;;8.40;;
32780;SDS011;19136;47.032;15.502;2023-11-21T04:46:33;21.45;;;9.52;;
32780;SDS011;19136;47.032;15.502;2023-11-21T04:48:58;26.85;;;8.48;;
32780;SDS011;19136;47.032;15.502;2023-11-21T04:51:24;15.68;;;8.65;;
32780;SDS011;19136;47.032;15.502;2023-11-21T04:53:49;21.70;;;8.38;;
32780;SDS011;19136;47.032;15.502;2023-11-21T04:56:14;22.20;;;8.55;;
32780;SDS011;19136;47.032;15.502;2023-11-21T04:58:41;23.42;;;8.80;;
32780;SDS011;19136;47.032;15.502;2023-11-21T05:01:07;21.75;;;8.52;;
32780;SDS011;19136;47.032;15.502;2023-11-21T05:03:32;18.70;;;8.75;;
32780;SDS011;19136;47.032;15.502;2023-11-21T05:05:59;21.60;;;8.70;;
32780;SDS011;19136;47.032;15.502;2023-11-21T05:08:25;20.48;;;8.68;;
32780;SDS011;19136;47.032;15.502;2023-11-21T05:10:51;16.35;;;8.45;;
32780;SDS011;19136;47.032;15.502;2023-11-21T05:13:17;22.73;;;7.70;;
32780;SDS011;19136;47.032;15.502;2023-11-21T05:15:44;19.70;;;8.10;;
32780;SDS011;19136;47.032;15.502;2023-11-21T05:18:09;16.27;;;7.93;;
32780;SDS011;19136;47.032;15.502;2023-11-21T05:20:35;17.33;;;8.20;;
32780;SDS011;19136;47.032;15.502;2023-11-21T05:23:01;18.45;;;7.47;;
32780;SDS011;19136;47.032;15.502;2023-11-21T05:25:26;18.80;;;8.05;;
32780;SDS011;19136;47.032;15.502;2023-11-21T05:27:52;20.33;;;7.30;;
32780;SDS011;19136;47.032;15.502;2023-11-21T05:30:20;18.40;;;7.85;;
32780;SDS011;19136;47.032;15.502;2023-11-21T05:32:46;21.75;;;10.10;;
32780;SDS011;19136;47.032;15.502;2023-11-21T05:35:11;22.13;;;7.97;;
32780;SDS011;19136;47.032;15.502;2023-11-21T05:37:41;22.27;;;7.95;;
32780;SDS011;19136;47.032;15.502;2023-11-21T05:40:07;20.27;;;8.57;;
32780;SDS011;19136;47.032;15.502;2023-11-21T05:42:36;16.33;;;7.15;;
32780;SDS011;19136;47.032;15.502;2023-11-21T05:45:03;16.58;;;8.25;;
32780;SDS011;19136;47.032;15.502;2023-11-21T05:47:42;21.35;;;9.13;;
32780;SDS011;19136;47.032;15.502;2023-11-21T05:50:08;19.38;;;8.50;;
32780;SDS011;19136;47.032;15.502;2023-11-21T05:52:40;23.25;;;8.48;;
32780;SDS011;19136;47.032;15.502;2023-11-21T05:55:06;22.55;;;8.52;;
32780;SDS011;19136;47.032;15.502;2023-11-21T05:57:35;23.30;;;9.30;;
32780;SDS011;19136;47.032;15.502;2023-11-21T06:02:35;20.15;;;9.38;;
32780;SDS011;19136;47.032;15.502;2023-11-21T06:05:01;17.25;;;8.70;;
32780;SDS011;19136;47.032;15.502;2023-11-21T06:07:26;20.05;;;8.82;;
32780;SDS011;19136;47.032;15.502;2023-11-21T06:09:52;18.58;;;8.50;;
32780;SDS011;19136;47.032;15.502;2023-11-21T06:12:17;19.35;;;9.15;;
32780;SDS011;19136;47.032;15.502;2023-11-21T06:14:42;17.60;;;8.65;;
32780;SDS011;19136;47.032;15.502;2023-11-21T06:17:08;16.35;;;8.45;;
32780;SDS011;19136;47.032;15.502;2023-11-21T06:19:35;20.60;;;9.18;;
32780;SDS011;19136;47.032;15.502;2023-11-21T06:22:00;27.77;;;9.23;;
32780;SDS011;19136;47.032;15.502;2023-11-21T06:24:27;21.77;;;9.60;;
32780;SDS011;19136;47.032;15.502;2023-11-21T06:26:53;28.70;;;10.80;;
32780;SDS011;19136;47.032;15.502;2023-11-21T06:29:19;26.35;;;9.52;;
32780;SDS011;19136;47.032;15.502;2023-11-21T06:31:50;18.23;;;8.77;;
32780;SDS011;19136;47.032;15.502;2023-11-21T06:34:20;22.37;;;9.57;;
32780;SDS011;19136;47.032;15.502;2023-11-21T06:36:47;21.27;;;9.85;;
32780;SDS011;19136;47.032;15.502;2023-11-21T06:39:12;24.08;;;11.05;;
32780;SDS011;19136;47.032;15.502;2023-11-21T06:41:40;21.63;;;12.18;;
32780;SDS011;19136;47.032;15.502;2023-11-21T06:44:05;23.23;;;11.32;;
32780;SDS011;19136;47.032;15.502;2023-11-21T06:46:31;22.95;;;9.10;;
32780;SDS011;19136;47.032;15.502;2023-11-21T06:48:57;23.58;;;9.68;;
32780;SDS011;19136;47.032;15.502;2023-11-21T06:51:22;24.55;;;9.23;;
32780;SDS011;19136;47.032;15.502;2023-11-21T06:53:48;18.52;;;8.93;;
32780;SDS011;19136;47.032;15.502;2023-11-21T06:56:17;17.73;;;8.77;;
32780;SDS011;19136;47.032;15.502;2023-11-21T06:58:44;26.05;;;9.52;;
32780;SDS011;19136;47.032;15.502;2023-11-21T07:01:14;23.88;;;9.93;;
32780;SDS011;19136;47.032;15.502;2023-11-21T07:03:40;26.80;;;10.35;;
32780;SDS011;19136;47.032;15.502;2023-11-21T07:06:06;23.27;;;10.18;;
32780;SDS011;19136;47.032;15.502;2023-11-21T07:08:33;24.05;;;10.95;;
32780;SDS011;19136;47.032;15.502;2023-11-21T07:10:58;23.42;;;9.30;;
32780;SDS011;19136;47.032;15.502;2023-11-21T07:13:24;23.35;;;9.55;;
32780;SDS011;19136;47.032;15.502;2023-11-21T07:15:51;24.70;;;10.32;;
32780;SDS011;19136;47.032;15.502;2023-11-21T07:18:17;21.92;;;9.80;;
32780;SDS011;19136;47.032;15.502;2023-11-21T07:20:43;33.20;;;8.93;;
32780;SDS011;19136;47.032;15.502;2023-11-21T07:23:12;27.67;;;9.82;;
32780;SDS011;19136;47.032;15.502;2023-11-21T07:25:38;25.75;;;9.65;;
32780;SDS011;19136;47.032;15.502;2023-11-21T07:28:03;25.15;;;9.40;;
32780;SDS011;19136;47.032;15.502;2023-11-21T07:30:33;22.90;;;9.88;;
32780;SDS011;19136;47.032;15.502;2023-11-21T07:32:59;20.55;;;10.13;;
32780;SDS011;19136;47.032;15.502;2023-11-21T07:35:25;22.02;;;10.50;;
32780;SDS011;19136;47.032;15.502;2023-11-21T07:37:51;20.65;;;10.50;;
32780;SDS011;19136;47.032;15.502;2023-11-21T07:40:17;27.02;;;10.75;;
32780;SDS011;19136;47.032;15.502;2023-11-21T07:42:43;24.77;;;8.75;;
32780;SDS011;19136;47.032;15.502;2023-11-21T07:45:09;20.33;;;9.68;;
32780;SDS011;19136;47.032;15.502;2023-11-21T07:47:35;23.13;;;10.13;;
32780;SDS011;19136;47.032;15.502;2023-11-21T07:50:04;25.38;;;9.63;;
32780;SDS011;19136;47.032;15.502;2023-11-21T07:52:30;29.75;;;9.68;;
32780;SDS011;19136;47.032;15.502;2023-11-21T07:54:56;27.02;;;11.50;;
32780;SDS011;19136;47.032;15.502;2023-11-21T07:57:21;28.50;;;10.45;;
32780;SDS011;19136;47.032;15.502;2023-11-21T07:59:47;26.98;;;9.65;;
32780;SDS011;19136;47.032;15.502;2023-11-21T08:02:13;27.35;;;10.00;;
32780;SDS011;19136;47.032;15.502;2023-11-21T08:04:38;31.65;;;10.18;;
32780;SDS011;19136;47.032;15.502;2023-11-21T08:07:04;24.80;;;9.27;;
32780;SDS011;19136;47.032;15.502;2023-11-21T08:09:29;23.30;;;8.77;;
32780;SDS011;19136;47.032;15.502;2023-11-21T08:11:55;17.83;;;8.77;;
32780;SDS011;19136;47.032;15.502;2023-11-21T08:14:20;24.25;;;10.45;;
32780;SDS011;19136;47.032;15.502;2023-11-21T08:16:46;27.05;;;10.88;;
32780;SDS011;19136;47.032;15.502;2023-11-21T08:19:11;27.13;;;12.52;;
32780;SDS011;19136;47.032;15.502;2023-11-21T08:21:37;26.30;;;11.52;;
32780;SDS011;19136;47.032;15.502;2023-11-21T08:24:06;32.30;;;10.80;;
32780;SDS011;19136;47.032;15.502;2023-11-21T08:26:31;30.63;;;11.57;;
32780;SDS011;19136;47.032;15.502;2023-11-21T08:28:57;31.92;;;11.52;;
32780;SDS011;19136;47.032;15.502;2023-11-21T08:31:25;21.27;;;10.55;;
32780;SDS011;19136;47.032;15.502;2023-11-21T08:33:51;20.70;;;9.30;;
32780;SDS011;19136;47.032;15.502;2023-11-21T08:36:16;18.23;;;9.48;;
32780;SDS011;19136;47.032;15.502;2023-11-21T08:38:42;27.77;;;8.80;;
32780;SDS011;19136;47.032;15.502;2023-11-21T08:41:07;22.10;;;9.43;;
32780;SDS011;19136;47.032;15.502;2023-11-21T08:43:34;19.98;;;9.48;;
32780;SDS011;19136;47.032;15.502;2023-11-21T08:45:59;22.05;;;9.43;;
32780;SDS011;19136;47.032;15.502;2023-11-21T08:48:25;21.38;;;8.57;;
32780;SDS011;19136;47.032;15.502;2023-11-21T08:50:50;25.20;;;10.07;;
32780;SDS011;19136;47.032;15.502;2023-11-21T08:53:16;23.75;;;9.98;;
32780;SDS011;19136;47.032;15.502;2023-11-21T08:55:42;22.52;;;10.45;;
32780;SDS011;19136;47.032;15.502;2023-11-21T08:58:09;20.45;;;9.80;;
32780;SDS011;19136;47.032;15.502;2023-11-21T09:00:34;24.85;;;9.88;;
32780;SDS011;19136;47.032;15.502;2023-11-21T09:03:03;27.00;;;10.25;;
32780;SDS011;19136;47.032;15.502;2023-11-21T09:05:29;24.60;;;8.63;;
32780;SDS011;19136;47.032;15.502;2023-11-21T09:07:55;20.23;;;8.60;;
32780;SDS011;19136;47.032;15.502;2023-11-21T09:10:20;21.13;;;8.63;;
32780;SDS011;19136;47.032;15.502;2023-11-21T09:12:46;16.83;;;8.25;;
32780;SDS011;19136;47.032;15.502;2023-11-21T09:15:11;13.98;;;7.72;;
32780;SDS011;19136;47.032;15.502;2023-11-21T09:17:37;20.08;;;8.52;;
32780;SDS011;19136;47.032;15.502;2023-11-21T09:20:02;19.27;;;7.95;;
32780;SDS011;19136;47.032;15.502;2023-11-21T09:22:31;19.73;;;7.18;;
32780;SDS011;19136;47.032;15.502;2023-11-21T09:24:57;14.18;;;6.25;;
32780;SDS011;19136;47.032;15.502;2023-11-21T09:27:23;13.50;;;6.32;;
32780;SDS011;19136;47.032;15.502;2023-11-21T09:29:49;14.50;;;6.03;;
32780;SDS011;19136;47.032;15.502;2023-11-21T09:32:14;14.73;;;6.05;;
32780;SDS011;19136;47.032;15.502;2023-11-21T09:34:41;15.02;;;6.25;;
32780;SDS011;19136;47.032;15.502;2023-11-21T09:37:07;11.75;;;5.15;;
32780;SDS011;19136;47.032;15.502;2023-11-21T09:39:33;16.05;;;5.35;;
32780;SDS011;19136;47.032;15.502;2023-11-21T09:42:07;12.50;;;5.53;;
32780;SDS011;19136;47.032;15.502;2023-11-21T09:44:42;17.58;;;6.13;;
32780;SDS011;19136;47.032;15.502;2023-11-21T09:47:10;13.38;;;4.95;;
32780;SDS011;19136;47.032;15.502;2023-11-21T09:49:35;12.88;;;5.22;;
32780;SDS011;19136;47.032;15.502;2023-11-21T09:52:02;15.90;;;5.82;;
32780;SDS011;19136;47.032;15.502;2023-11-21T09:54:28;10.00;;;4.80;;
32780;SDS011;19136;47.032;15.502;2023-11-21T09:56:54;11.85;;;4.97;;
32780;SDS011;19136;47.032;15.502;2023-11-21T09:59:20;11.65;;;5.13;;
32780;SDS011;19136;47.032;15.502;2023-11-21T10:01:46;11.73;;;6.20;;
32780;SDS011;19136;47.032;15.502;2023-11-21T10:04:13;12.43;;;6.32;;
32780;SDS011;19136;47.032;15.502;2023-11-21T10:06:39;13.52;;;7.18;;
32780;SDS011;19136;47.032;15.502;2023-11-21T10:09:07;19.30;;;8.23;;
32780;SDS011;19136;47.032;15.502;2023-11-21T10:11:39;14.18;;;7.75;;
32780;SDS011;19136;47.032;15.502;2023-11-21T10:14:06;14.93;;;7.15;;
32780;SDS011;19136;47.032;15.502;2023-11-21T10:16:35;12.38;;;5.18;;
32780;SDS011;19136;47.032;15.502;2023-11-21T10:19:02;18.35;;;6.43;;
32780;SDS011;19136;47.032;15.502;2023-11-21T10:21:28;12.02;;;5.53;;
32780;SDS011;19136;47.032;15.502;2023-11-21T10:23:54;11.77;;;4.90;;
32780;SDS011;19136;47.032;15.502;2023-11-21T10:26:20;8.38;;;4.65;;
32780;SDS011;19136;47.032;15.502;2023-11-21T10:28:55;15.20;;;6.43;;
32780;SDS011;19136;47.032;15.502;2023-11-21T10:31:22;14.38;;;5.20;;
32780;SDS011;19136;47.032;15.502;2023-11-21T10:33:49;16.02;;;7.80;;
32780;SDS011;19136;47.032;15.502;2023-11-21T10:36:25;17.55;;;8.75;;
32780;SDS011;19136;47.032;15.502;2023-11-21T10:38:51;10.80;;;6.80;;
32780;SDS011;19136;47.032;15.502;2023-11-21T10:41:18;14.25;;;7.75;;
32780;SDS011;19136;47.032;15.502;2023-11-21T10:43:44;13.38;;;7.82;;
32780;SDS011;19136;47.032;15.502;2023-11-21T10:46:09;22.42;;;8.98;;
32780;SDS011;19136;47.032;15.502;2023-11-21T10:48:35;18.92;;;9.50;;
32780;SDS011;19136;47.032;15.502;2023-11-21T10:51:01;20.17;;;9.77;;
32780;SDS011;19136;47.032;15.502;2023-11-21T10:53:31;16.70;;;9.50;;
32780;SDS011;19136;47.032;15.502;2023-11-21T10:56:01;19.20;;;9.57;;
32780;SDS011;19136;47.032;15.502;2023-11-21T10:58:26;14.93;;;7.68;;
32780;SDS011;19136;47.032;15.502;2023-11-21T11:00:52;15.27;;;6.95;;
32780;SDS011;19136;47.032;15.502;2023-11-21T11:03:17;14.85;;;7.30;;
32780;SDS011;19136;47.032;15.502;2023-11-21T11:05:43;12.13;;;5.50;;
32780;SDS011;19136;47.032;15.502;2023-11-21T11:10:45;16.10;;;6.05;;
32780;SDS011;19136;47.032;15.502;2023-11-21T11:13:11;9.60;;;5.70;;
32780;SDS011;19136;47.032;15.502;2023-11-21T11:15:40;10.57;;;6.25;;
32780;SDS011;19136;47.032;15.502;2023-11-21T11:18:05;11.25;;;5.90;;
32780;SDS011;19136;47.032;15.502;2023-11-21T11:20:36;13.13;;;6.68;;
32780;SDS011;19136;47.032;15.502;2023-11-21T11:28:27;12.90;;;5.90;;
32780;SDS011;19136;47.032;15.502;2023-11-21T11:38:23;13.57;;;6.25;;
32780;SDS011;19136;47.032;15.502;2023-11-21T11:40:52;13.98;;;6.80;;
32780;SDS011;19136;47.032;15.502;2023-11-21T11:43:24;15.68;;;7.05;;
32780;SDS011;19136;47.032;15.502;2023-11-21T11:45:50;19.25;;;7.75;;
32780;SDS011;19136;47.032;15.502;2023-11-21T11:48:19;15.27;;;8.13;;
32780;SDS011;19136;47.032;15.502;2023-11-21T11:53:47;15.85;;;7.63;;
32780;SDS011;19136;47.032;15.502;2023-11-21T11:56:20;12.02;;;6.78;;
32780;SDS011;19136;47.032;15.502;2023-11-21T11:58:47;14.93;;;7.13;;
32780;SDS011;19136;47.032;15.502;2023-11-21T12:01:13;14.70;;;7.72;;
32780;SDS011;19136;47.032;15.502;2023-11-21T12:03:38;18.08;;;7.82;;
32780;SDS011;19136;47.032;15.502;2023-11-21T12:06:04;22.20;;;9.25;;
32780;SDS011;19136;47.032;15.502;2023-11-21T12:08:32;16.13;;;7.82;;
32780;SDS011;19136;47.032;15.502;2023-11-21T12:10:58;16.35;;;7.43;;
32780;SDS011;19136;47.032;15.502;2023-11-21T12:13:23;15.68;;;7.38;;
32780;SDS011;19136;47.032;15.502;2023-11-21T12:15:51;16.67;;;7.20;;
32780;SDS011;19136;47.032;15.502;2023-11-21T12:18:16;14.02;;;7.40;;
32780;SDS011;19136;47.032;15.502;2023-11-21T12:20:42;11.20;;;6.80;;
32780;SDS011;19136;47.032;15.502;2023-11-21T12:23:12;13.95;;;7.45;;
32780;SDS011;19136;47.032;15.502;2023-11-21T12:25:39;14.13;;;7.72;;
32780;SDS011;19136;47.032;15.502;2023-11-21T12:28:06;15.65;;;7.45;;
32780;SDS011;19136;47.032;15.502;2023-11-21T12:30:33;13.43;;;6.55;;
32780;SDS011;19136;47.032;15.502;2023-11-21T12:33:01;15.23;;;6.00;;
32780;SDS011;19136;47.032;15.502;2023-11-21T12:35:27;13.13;;;6.13;;
32780;SDS011;19136;47.032;15.502;2023-11-21T12:37:54;9.32;;;6.07;;
32780;SDS011;19136;47.032;15.502;2023-11-21T12:40:20;18.52;;;6.68;;
32780;SDS011;19136;47.032;15.502;2023-11-21T12:42:48;9.43;;;6.10;;
32780;SDS011;19136;47.032;15.502;2023-11-21T12:47:44;10.52;;;6.18;;
32780;SDS011;19136;47.032;15.502;2023-11-21T12:50:10;16.35;;;6.95;;
32780;SDS011;19136;47.032;15.502;2023-11-21T12:52:42;15.45;;;6.63;;
32780;SDS011;19136;47.032;15.502;2023-11-21T12:55:12;13.82;;;6.53;;
32780;SDS011;19136;47.032;15.502;2023-11-21T12:57:47;15.80;;;7.43;;
32780;SDS011;19136;47.032;15.502;2023-11-21T13:00:15;17.80;;;6.50;;
32780;SDS011;19136;47.032;15.502;2023-11-21T13:02:52;12.65;;;7.22;;
32780;SDS011;19136;47.032;15.502;2023-11-21T13:05:26;18.67;;;7.60;;
32780;SDS011;19136;47.032;15.502;2023-11-21T13:07:52;15.63;;;7.13;;
32780;SDS011;19136;47.032;15.502;2023-11-21T13:10:20;15.65;;;8.43;;
32780;SDS011;19136;47.032;15.502;2023-11-21T13:12:51;15.02;;;7.60;;
32780;SDS011;19136;47.032;15.502;2023-11-21T13:15:17;19.85;;;8.82;;
32780;SDS011;19136;47.032;15.502;2023-11-21T13:17:43;17.17;;;8.50;;
32780;SDS011;19136;47.032;15.502;2023-11-21T13:20:10;17.50;;;9.35;;
32780;SDS011;19136;47.032;15.502;2023-11-21T13:22:50;16.27;;;8.13;;
32780;SDS011;19136;47.032;15.502;2023-11-21T13:25:22;16.85;;;8.68;;
32780;SDS011;19136;47.032;15.502;2023-11-21T13:27:47;16.35;;;8.60;;
32780;SDS011;19136;47.032;15.502;2023-11-21T13:30:13;17.73;;;8.73;;
32780;SDS011;19136;47.032;15.502;2023-11-21T13:32:43;14.98;;;8.88;;
32780;SDS011;19136;47.032;15.502;2023-11-21T13:35:09;30.35;;;10.70;;
32780;SDS011;19136;47.032;15.502;2023-11-21T13:37:40;20.70;;;8.57;;
32780;SDS011;19136;47.032;15.502;2023-11-21T13:40:06;16.90;;;9.82;;
32780;SDS011;19136;47.032;15.502;2023-11-21T13:42:39;18.77;;;9.55;;
32780;SDS011;19136;47.032;15.502;2023-11-21T13:45:06;15.88;;;9.00;;
32780;SDS011;19136;47.032;15.502;2023-11-21T13:47:31;19.30;;;9.50;;
32780;SDS011;19136;47.032;15.502;2023-11-21T13:49:59;20.13;;;8.95;;
32780;SDS011;19136;47.032;15.502;2023-11-21T13:52:26;18.23;;;8.52;;
32780;SDS011;19136;47.032;15.502;2023-11-21T13:54:53;21.67;;;8.77;;
32780;SDS011;19136;47.032;15.502;2023-11-21T13:57:18;19.55;;;8.90;;
32780;SDS011;19136;47.032;15.502;2023-11-21T13:59:45;16.58;;;8.43;;
32780;SDS011;19136;47.032;15.502;2023-11-21T14:02:11;17.40;;;8.90;;
32780;SDS011;19136;47.032;15.502;2023-11-21T14:04:43;16.92;;;8.30;;
32780;SDS011;19136;47.032;15.502;2023-11-21T14:07:15;17.35;;;8.15;;
32780;SDS011;19136;47.032;15.502;2023-11-21T14:09:55;19.25;;;8.93;;
32780;SDS011;19136;47.032;15.502;2023-11-21T14:12:21;16.75;;;7.60;;
32780;SDS011;19136;47.032;15.502;2023-11-21T14:14:47;14.88;;;7.68;;
32780;SDS011;19136;47.032;15.502;2023-11-21T14:17:12;15.07;;;8.15;;
32780;SDS011;19136;47.032;15.502;2023-11-21T14:19:38;13.57;;;7.45;;
32780;SDS011;19136;47.032;15.502;2023-11-21T14:22:08;16.10;;;7.60;;
32780;SDS011;19136;47.032;15.502;2023-11-21T14:24:35;13.25;;;7.78;;
32780;SDS011;19136;47.032;15.502;2023-11-21T14:27:00;15.25;;;8.00;;
32780;SDS011;19136;47.032;15.502;2023-11-21T14:29:26;22.23;;;8.00;;
32780;SDS011;19136;47.032;15.502;2023-11-21T14:31:52;13.25;;;7.22;;
32780;SDS011;19136;47.032;15.502;2023-11-21T14:34:21;13.32;;;7.15;;
32780;SDS011;19136;47.032;15.502;2023-11-21T14:36:47;15.82;;;7.40;;
32780;SDS011;19136;47.032;15.502;2023-11-21T14:39:14;16.08;;;8.15;;